Time;durP1;ratioP1;P1;durP2;ratioP2;P2;SDS_P1;SDS_P2;PMS_P1;PMS_P2;Temp;Humidity;BMP_temperature;BMP_pressure;BME280_temperature;BME280_humidity;BME280_pressure;Samples;Min_cycle;Max_cycle;Signal;HPM_P1;HPM_P2
2022/06/24 00:01:36;;;;;;;13.75;3.75;;;;;;;18.05;100.00;98631.38;5026894;28;20078;-53
2022/06/24 00:04:01;;;;;;;9.30;3.92;;;;;;;18.00;100.00;98628.78;5026801;28;20025;-52
2022/06/24 00:06:44;;;;;;;16.33;4.10;;;;;;;18.08;100.00;98625.31;5042961;28;20057;-56
2022/06/24 00:09:11;;;;;;;19.17;6.03;;;;;;;18.01;100.00;98638.50;5049147;28;20032;-56
2022/06/24 00:11:36;;;;;;;10.65;3.88;;;;;;;18.01;100.00;98654.75;5066752;28;20127;-56
2022/06/24 00:14:03;;;;;;;11.95;3.50;;;;;;;18.08;100.00;98653.22;5066363;28;20035;-56
2022/06/24 00:16:29;;;;;;;14.27;4.05;;;;;;;18.14;100.00;98640.34;5066924;28;20023;-56
2022/06/24 00:19:10;;;;;;;11.75;3.75;;;;;;;18.05;100.00;98634.88;5068097;28;20033;-57
2022/06/24 00:21:36;;;;;;;9.23;3.65;;;;;;;17.98;100.00;98633.69;5068965;28;20040;-57
2022/06/24 00:24:01;;;;;;;15.18;3.60;;;;;;;18.02;100.00;98631.94;5068635;28;20475;-55
2022/06/24 00:26:40;;;;;;;9.30;3.53;;;;;;;18.10;100.00;98629.31;5066128;28;20528;-56
2022/06/24 00:29:05;;;;;;;20.20;4.20;;;;;;;18.03;100.00;98628.16;5062333;28;20059;-55
2022/06/24 00:31:31;;;;;;;10.63;3.33;;;;;;;17.92;100.00;98621.34;5068109;28;20032;-55
2022/06/24 00:33:56;;;;;;;16.63;3.95;;;;;;;17.91;100.00;98619.75;5040083;28;20021;-56
2022/06/24 00:36:22;;;;;;;10.43;3.63;;;;;;;17.94;100.00;98622.63;5044102;28;20044;-56
2022/06/24 00:38:51;;;;;;;10.45;3.38;;;;;;;17.96;99.17;98623.13;5067810;28;20599;-55
2022/06/24 00:41:21;;;;;;;8.07;2.75;;;;;;;18.06;97.31;98622.09;5063643;28;20591;-55
2022/06/24 00:43:46;;;;;;;7.80;2.90;;;;;;;18.08;96.97;98630.75;5044475;28;20033;-55
2022/06/24 00:46:24;;;;;;;9.77;2.70;;;;;;;17.98;96.52;98639.13;5018250;28;20017;-56
2022/06/24 00:48:54;;;;;;;12.88;2.83;;;;;;;17.80;97.96;98659.84;5049805;28;20494;-55
2022/06/24 00:51:20;;;;;;;9.48;2.97;;;;;;;17.71;100.00;98677.88;5067244;28;20032;-56
2022/06/24 00:53:47;;;;;;;10.07;2.85;;;;;;;17.75;100.00;98670.75;5067447;28;20041;-56
2022/06/24 00:56:14;;;;;;;12.13;2.58;;;;;;;17.70;98.32;98674.38;5068882;28;20035;-55
2022/06/24 00:58:40;;;;;;;9.23;3.00;;;;;;;17.58;100.00;98682.19;5050808;28;20047;-55
2022/06/24 01:01:05;;;;;;;12.00;2.83;;;;;;;17.59;100.00;98668.34;5047248;28;20025;-55
2022/06/24 01:03:39;;;;;;;8.48;2.80;;;;;;;17.56;100.00;98658.09;5059582;28;20027;-52
2022/06/24 01:06:04;;;;;;;10.45;2.70;;;;;;;17.60;100.00;98652.91;5065922;28;20046;-56
2022/06/24 01:08:30;;;;;;;10.82;2.50;;;;;;;17.44;100.00;98653.19;5066807;28;20479;-56
2022/06/24 01:10:55;;;;;;;9.60;3.13;;;;;;;17.51;100.00;98652.00;5067561;28;20040;-53
2022/06/24 01:13:23;;;;;;;12.10;3.00;;;;;;;17.39;100.00;98653.28;5068219;28;20082;-55
2022/06/24 01:15:49;;;;;;;6.57;2.67;;;;;;;17.40;100.00;98627.03;5037103;28;20491;-56
2022/06/24 01:18:14;;;;;;;12.60;3.63;;;;;;;17.42;100.00;98603.94;5066666;28;20078;-56
2022/06/24 01:20:40;;;;;;;7.05;2.80;;;;;;;17.42;100.00;98581.47;5064901;28;20029;-56
2022/06/24 01:23:05;;;;;;;8.27;2.55;;;;;;;17.34;100.00;98550.47;5067170;28;20436;-55
2022/06/24 01:25:31;;;;;;;6.75;2.40;;;;;;;17.29;100.00;98545.16;5067226;28;20664;-54
2022/06/24 01:27:57;;;;;;;5.38;2.45;;;;;;;17.32;100.00;98544.56;5037278;28;20041;-56
2022/06/24 01:30:22;;;;;;;9.35;2.65;;;;;;;17.13;100.00;98555.53;5066527;28;20392;-55
2022/06/24 01:32:48;;;;;;;8.70;2.92;;;;;;;17.22;100.00;98566.44;5068010;28;20036;-55
2022/06/24 01:35:14;;;;;;;10.18;2.60;;;;;;;17.14;100.00;98607.75;5068225;28;20020;-58
2022/06/24 01:37:39;;;;;;;9.02;2.50;;;;;;;17.10;100.00;98604.88;5066831;28;20656;-56
2022/06/24 01:40:05;;;;;;;12.80;2.90;;;;;;;17.09;100.00;98561.84;5062769;28;20063;-56
2022/06/24 01:42:31;;;;;;;9.10;3.05;;;;;;;17.05;100.00;98556.22;5045385;28;20040;-54
2022/06/24 01:44:56;;;;;;;6.75;2.80;;;;;;;16.92;100.00;98541.56;5050183;28;20020;-55
2022/06/24 01:47:21;;;;;;;13.43;3.28;;;;;;;16.90;100.00;98538.38;5068719;28;20484;-55
2022/06/24 01:49:47;;;;;;;9.45;2.83;;;;;;;16.85;100.00;98533.06;5071330;28;20451;-55
2022/06/24 01:52:12;;;;;;;7.00;2.80;;;;;;;16.91;100.00;98521.03;5071354;28;20487;-56
2022/06/24 01:54:38;;;;;;;7.00;3.40;;;;;;;16.84;100.00;98523.34;5072232;28;20529;-56
2022/06/24 01:57:03;;;;;;;6.95;2.83;;;;;;;16.87;100.00;98516.53;5071448;28;20028;-56
2022/06/24 01:59:29;;;;;;;11.70;2.88;;;;;;;16.83;100.00;98515.53;5071211;28;20039;-56
2022/06/24 02:01:54;;;;;;;9.30;2.80;;;;;;;16.87;100.00;98511.91;5071103;28;20035;-55
2022/06/24 02:04:20;;;;;;;8.55;2.70;;;;;;;16.74;100.00;98502.66;5070364;28;20060;-56
2022/06/24 02:06:45;;;;;;;10.35;3.05;;;;;;;16.69;100.00;98505.47;5072137;28;20387;-55
2022/06/24 02:09:11;;;;;;;9.55;3.03;;;;;;;16.65;100.00;98506.34;5070889;28;20495;-56
2022/06/24 02:14:20;;;;;;;9.65;3.28;;;;;;;16.64;100.00;98510.19;5042303;28;20588;-54
2022/06/24 02:16:45;;;;;;;8.75;3.28;;;;;;;16.64;100.00;98502.84;5043574;28;20041;-54
2022/06/24 02:19:11;;;;;;;7.60;3.22;;;;;;;16.63;100.00;98514.00;5070865;28;20054;-55
2022/06/24 02:21:36;;;;;;;11.27;3.28;;;;;;;16.57;100.00;98513.25;5070321;28;20034;-55
2022/06/24 02:24:02;;;;;;;9.98;3.13;;;;;;;16.63;100.00;98519.41;5044941;28;20025;-55
2022/06/24 02:26:27;;;;;;;7.97;3.25;;;;;;;16.65;100.00;98514.47;5069302;28;20028;-56
2022/06/24 02:28:53;;;;;;;6.70;3.03;;;;;;;16.72;100.00;98525.69;5039742;28;20025;-56
2022/06/24 02:31:18;;;;;;;7.15;3.25;;;;;;;16.86;100.00;98521.13;5069840;28;20086;-56
2022/06/24 02:33:44;;;;;;;6.75;3.20;;;;;;;16.98;100.00;98528.75;5070484;28;20368;-56
2022/06/24 02:36:09;;;;;;;12.80;3.25;;;;;;;16.99;100.00;98525.72;5053203;28;20031;-56
2022/06/24 02:38:36;;;;;;;6.82;2.95;;;;;;;16.98;100.00;98539.59;5063703;28;20033;-56
2022/06/24 02:41:02;;;;;;;6.47;2.70;;;;;;;16.98;100.00;98532.25;5070465;28;20108;-55
2022/06/24 02:43:30;;;;;;;6.32;3.40;;;;;;;17.04;100.00;98531.03;5070098;28;20093;-56
2022/06/24 02:46:06;;;;;;;4.90;2.67;;;;;;;16.91;100.00;98531.06;5071331;28;20609;-55
2022/06/24 02:48:33;;;;;;;8.30;2.60;;;;;;;16.93;100.00;98524.25;5068899;28;20029;-56
2022/06/24 02:51:04;;;;;;;6.05;2.65;;;;;;;16.81;100.00;98513.13;5064209;28;20028;-57
2022/06/24 02:53:30;;;;;;;7.40;2.70;;;;;;;16.81;100.00;98507.72;5070623;28;20089;-56
2022/06/24 02:55:57;;;;;;;13.93;3.25;;;;;;;16.87;100.00;98522.72;5070032;28;20024;-57
2022/06/24 02:58:22;;;;;;;8.13;2.63;;;;;;;16.93;100.00;98518.84;5069781;28;20040;-56
2022/06/24 03:00:48;;;;;;;6.68;2.78;;;;;;;16.90;100.00;98505.91;5070842;28;20024;-56
2022/06/24 03:03:18;;;;;;;9.00;2.80;;;;;;;16.75;100.00;98506.19;5069662;28;20479;-56
2022/06/24 03:05:44;;;;;;;8.80;2.58;;;;;;;16.78;100.00;98508.31;5070277;28;20147;-55
2022/06/24 03:08:10;;;;;;;8.43;2.60;;;;;;;16.82;100.00;98503.88;5070644;28;20272;-56
2022/06/24 03:10:36;;;;;;;10.50;2.83;;;;;;;16.75;100.00;98508.88;5070287;28;20253;-56
2022/06/24 03:13:01;;;;;;;9.25;2.80;;;;;;;16.86;100.00;98507.59;5068584;28;20040;-55
2022/06/24 03:15:27;;;;;;;6.07;2.60;;;;;;;16.80;100.00;98511.53;5069743;28;20021;-57
2022/06/24 03:17:53;;;;;;;5.72;2.58;;;;;;;16.73;100.00;98502.97;5068404;28;20075;-56
2022/06/24 03:20:18;;;;;;;7.88;2.90;;;;;;;16.77;100.00;98512.06;5069229;28;20033;-54
2022/06/24 03:22:43;;;;;;;9.35;2.67;;;;;;;16.89;100.00;98515.13;5069800;28;20082;-55
2022/06/24 03:25:09;;;;;;;11.52;2.90;;;;;;;17.00;100.00;98521.94;5072542;28;20387;-57
2022/06/24 03:27:35;;;;;;;14.05;3.25;;;;;;;17.08;100.00;98527.75;5071309;28;20115;-57
2022/06/24 03:30:00;;;;;;;5.22;2.30;;;;;;;17.00;100.00;98516.53;5069616;28;20463;-53
2022/06/24 03:32:26;;;;;;;8.15;2.88;;;;;;;16.82;100.00;98520.13;5067870;28;20021;-57
2022/06/24 03:34:51;;;;;;;10.25;2.80;;;;;;;16.87;100.00;98519.22;5064083;28;20086;-56
2022/06/24 03:37:17;;;;;;;11.32;3.10;;;;;;;17.04;100.00;98522.13;5069551;28;20078;-57
2022/06/24 03:39:42;;;;;;;8.48;2.70;;;;;;;17.13;100.00;98519.53;5069614;28;20381;-56
2022/06/24 03:42:08;;;;;;;11.10;2.97;;;;;;;17.04;100.00;98520.22;5052372;28;20402;-57
2022/06/24 03:44:33;;;;;;;8.98;2.70;;;;;;;16.93;100.00;98510.72;5070039;28;20032;-57
2022/06/24 03:47:01;;;;;;;9.68;3.13;;;;;;;16.88;100.00;98513.53;5070297;28;20498;-54
2022/06/24 03:49:26;;;;;;;7.38;2.67;;;;;;;16.88;100.00;98518.94;5069399;28;20020;-56
2022/06/24 03:51:51;;;;;;;12.75;3.30;;;;;;;16.84;100.00;98522.53;5068935;28;20054;-56
2022/06/24 03:54:17;;;;;;;9.07;2.90;;;;;;;16.90;100.00;98511.31;5069558;28;20074;-55
2022/06/24 03:56:42;;;;;;;6.75;2.80;;;;;;;16.87;100.00;98517.31;5068940;28;20390;-57
2022/06/24 03:59:08;;;;;;;11.30;2.92;;;;;;;16.91;100.00;98521.03;5055854;28;20020;-56
2022/06/24 04:01:33;;;;;;;7.55;2.53;;;;;;;16.90;100.00;98521.31;5069520;28;20032;-55
2022/06/24 04:03:59;;;;;;;7.28;2.47;;;;;;;16.89;100.00;98520.53;5069594;28;20024;-56
2022/06/24 04:06:24;;;;;;;12.00;3.00;;;;;;;16.84;100.00;98519.84;5051818;28;20021;-58
2022/06/24 04:08:51;;;;;;;5.43;2.42;;;;;;;16.96;100.00;98515.50;5069372;28;20126;-56
2022/06/24 04:11:16;;;;;;;8.25;2.50;;;;;;;16.73;100.00;98509.19;5067745;28;20465;-55
2022/06/24 04:13:42;;;;;;;6.30;2.47;;;;;;;16.70;100.00;98506.25;5068768;28;20033;-56
2022/06/24 04:16:08;;;;;;;11.00;2.88;;;;;;;16.67;100.00;98512.28;5068603;28;20066;-56
2022/06/24 04:18:33;;;;;;;9.15;2.40;;;;;;;16.74;100.00;98515.38;5068442;28;20094;-56
2022/06/24 04:20:58;;;;;;;7.60;2.55;;;;;;;16.75;100.00;98517.00;5035007;28;20079;-56
2022/06/24 04:23:24;;;;;;;6.82;2.40;;;;;;;16.71;100.00;98522.19;5062416;28;20032;-57
2022/06/24 04:25:50;;;;;;;9.57;2.70;;;;;;;16.65;100.00;98519.88;5068448;28;20098;-55
2022/06/24 04:28:15;;;;;;;13.15;2.83;;;;;;;16.75;100.00;98525.13;5068556;28;20024;-56
2022/06/24 04:30:41;;;;;;;8.23;2.47;;;;;;;16.74;100.00;98531.63;5035663;28;20033;-56
2022/06/24 04:33:06;;;;;;;10.38;2.80;;;;;;;16.79;100.00;98531.56;5068759;28;20025;-56
2022/06/24 04:35:31;;;;;;;14.70;3.85;;;;;;;16.72;100.00;98533.81;5069271;28;20130;-55
2022/06/24 04:37:57;;;;;;;14.25;2.53;;;;;;;16.74;100.00;98534.31;5068241;28;20029;-56
2022/06/24 04:40:22;;;;;;;9.68;2.95;;;;;;;16.80;100.00;98533.97;5050246;28;20388;-56
2022/06/24 04:42:48;;;;;;;15.23;3.38;;;;;;;17.01;100.00;98528.16;5067542;28;20471;-57
2022/06/24 04:45:13;;;;;;;7.35;2.65;;;;;;;17.07;100.00;98536.97;5069057;28;20028;-56
2022/06/24 04:47:39;;;;;;;6.80;2.30;;;;;;;16.87;100.00;98538.97;5067777;28;20101;-56
2022/06/24 04:50:07;;;;;;;5.75;2.50;;;;;;;16.95;100.00;98538.28;5068495;28;20029;-57
2022/06/24 04:52:33;;;;;;;11.00;2.58;;;;;;;16.97;100.00;98548.78;5068830;28;20416;-55
2022/06/24 04:54:59;;;;;;;7.03;2.53;;;;;;;16.80;100.00;98552.91;5069099;28;20111;-56
2022/06/24 04:57:25;;;;;;;13.10;2.88;;;;;;;16.76;100.00;98542.94;5067246;28;20039;-55
2022/06/24 04:59:50;;;;;;;13.13;3.15;;;;;;;16.93;100.00;98537.78;5068108;28;20025;-57
2022/06/24 05:02:15;;;;;;;10.82;2.88;;;;;;;17.00;100.00;98543.59;5068078;28;20445;-58
2022/06/24 05:04:41;;;;;;;7.82;2.58;;;;;;;16.91;100.00;98534.56;5067447;28;20109;-54
2022/06/24 05:07:06;;;;;;;8.15;2.70;;;;;;;16.80;100.00;98539.38;5058265;28;20037;-55
2022/06/24 05:09:32;;;;;;;8.90;2.75;;;;;;;16.85;100.00;98537.66;5050259;28;20379;-54
2022/06/24 05:11:57;;;;;;;15.05;3.45;;;;;;;16.88;100.00;98537.88;5066819;28;20032;-53
2022/06/24 05:14:23;;;;;;;7.47;2.63;;;;;;;16.91;100.00;98536.47;5068462;28;20025;-55
2022/06/24 05:16:48;;;;;;;11.93;3.03;;;;;;;17.00;100.00;98537.38;5067430;28;20017;-57
2022/06/24 05:19:14;;;;;;;10.27;2.90;;;;;;;17.09;100.00;98540.19;5067239;28;20039;-56
2022/06/24 05:21:39;;;;;;;10.95;3.40;;;;;;;17.10;100.00;98536.34;5048352;28;20086;-55
2022/06/24 05:24:05;;;;;;;10.77;3.00;;;;;;;17.03;100.00;98532.16;5066631;28;20029;-55
2022/06/24 05:26:30;;;;;;;11.40;3.63;;;;;;;17.06;100.00;98530.75;5067667;28;20035;-55
2022/06/24 05:28:56;;;;;;;16.83;3.58;;;;;;;17.13;100.00;98530.34;5068154;28;20565;-56
2022/06/24 05:31:21;;;;;;;8.65;3.00;;;;;;;17.22;99.06;98531.22;5068103;28;20017;-56
2022/06/24 05:33:47;;;;;;;8.05;2.90;;;;;;;17.39;99.67;98531.41;5066700;28;20023;-55
2022/06/24 05:36:12;;;;;;;8.00;2.92;;;;;;;17.46;99.31;98529.09;5067841;28;20079;-56
2022/06/24 05:38:38;;;;;;;10.07;3.55;;;;;;;17.54;98.25;98529.47;5066891;28;20033;-56
2022/06/24 05:41:03;;;;;;;12.23;3.42;;;;;;;17.84;95.44;98526.09;5050106;28;20490;-56
2022/06/24 05:43:29;;;;;;;9.02;3.70;;;;;;;18.03;95.00;98520.50;5067365;28;20063;-56
2022/06/24 05:45:55;;;;;;;9.00;3.08;;;;;;;18.10;94.82;98514.63;5042186;28;20425;-56
2022/06/24 05:48:20;;;;;;;9.38;3.35;;;;;;;18.28;94.65;98526.41;5067328;28;20028;-55
2022/06/24 05:50:46;;;;;;;27.75;3.78;;;;;;;18.45;92.06;98522.97;5067182;28;20024;-55
2022/06/24 05:55:56;;;;;;;5.75;3.03;;;;;;;18.27;94.25;98511.22;5064294;28;20153;-55
2022/06/24 05:58:22;;;;;;;15.05;3.63;;;;;;;18.24;93.80;98517.25;5067923;28;20032;-56
2022/06/24 06:00:47;;;;;;;9.63;3.00;;;;;;;18.00;94.90;98512.19;5033330;28;20040;-55
2022/06/24 06:03:13;;;;;;;9.48;3.20;;;;;;;18.25;95.64;98516.97;5067699;28;20032;-56
2022/06/24 06:05:38;;;;;;;9.55;3.13;;;;;;;18.24;93.86;98509.91;5067620;28;20097;-56
2022/06/24 06:08:04;;;;;;;8.52;3.70;;;;;;;18.10;94.27;98509.22;5054608;28;20417;-56
2022/06/24 06:10:29;;;;;;;9.95;3.42;;;;;;;18.01;96.05;98505.66;5051022;28;20379;-56
2022/06/24 06:12:55;;;;;;;11.90;3.80;;;;;;;17.98;96.02;98498.13;5037160;28;21403;-56
2022/06/24 06:15:20;;;;;;;8.60;3.28;;;;;;;17.76;96.52;98507.81;5050114;28;20355;-57
2022/06/24 06:17:46;;;;;;;11.35;3.80;;;;;;;17.52;99.09;98505.38;5041097;28;20043;-55
2022/06/24 06:20:11;;;;;;;11.10;3.72;;;;;;;17.66;98.42;98502.66;5066066;28;20025;-56
2022/06/24 06:22:37;;;;;;;13.50;4.05;;;;;;;17.73;97.78;98511.16;5066681;28;20102;-57
2022/06/24 06:25:02;;;;;;;8.25;4.10;;;;;;;17.67;97.58;98513.19;5067097;28;20029;-55
2022/06/24 06:27:28;;;;;;;13.55;4.38;;;;;;;17.79;96.70;98500.97;5066275;28;20021;-56
2022/06/24 06:29:53;;;;;;;10.77;4.13;;;;;;;17.59;97.15;98504.97;5068053;28;20032;-56
2022/06/24 06:32:18;;;;;;;11.52;4.97;;;;;;;17.64;97.37;98496.72;5049752;28;20123;-56
2022/06/24 06:34:44;;;;;;;12.77;4.35;;;;;;;17.96;96.60;98497.63;5053325;28;20506;-57
2022/06/24 06:37:11;;;;;;;12.43;4.25;;;;;;;18.03;93.91;98504.22;5070728;28;20033;-62
2022/06/24 06:39:36;;;;;;;11.07;4.07;;;;;;;18.25;94.79;98500.69;5071616;28;20121;-56
2022/06/24 06:42:02;;;;;;;10.13;3.85;;;;;;;18.27;94.67;98495.75;5069486;28;20501;-54
2022/06/24 06:44:28;;;;;;;11.02;4.22;;;;;;;18.46;93.23;98500.16;5044193;28;20099;-56
2022/06/24 06:46:54;;;;;;;12.55;4.50;;;;;;;18.67;95.19;98498.50;5070482;28;20467;-56
2022/06/24 06:49:19;;;;;;;8.52;4.18;;;;;;;18.62;94.36;98501.34;5069794;28;20035;-57
2022/06/24 06:51:44;;;;;;;17.85;4.20;;;;;;;18.76;92.99;98493.13;5070725;28;20039;-56
2022/06/24 06:54:11;;;;;;;8.77;3.80;;;;;;;18.25;95.84;98491.75;5069796;28;20375;-56
2022/06/24 06:56:36;;;;;;;10.23;5.10;;;;;;;19.07;93.61;98495.78;5070076;28;20098;-57
2022/06/24 06:59:02;;;;;;;8.68;4.30;;;;;;;19.43;90.75;98493.91;5068552;28;20467;-57
2022/06/24 07:01:27;;;;;;;9.88;4.10;;;;;;;18.81;92.44;98494.91;5070241;28;20028;-56
2022/06/24 07:03:52;;;;;;;9.75;3.63;;;;;;;18.69;93.29;98487.31;5070047;28;20029;-56
2022/06/24 07:06:18;;;;;;;14.55;3.85;;;;;;;19.03;92.79;98496.72;5069042;28;20039;-56
2022/06/24 07:08:43;;;;;;;9.82;3.55;;;;;;;18.78;94.81;98500.97;5070217;28;20028;-57
2022/06/24 07:11:09;;;;;;;7.68;3.55;;;;;;;19.18;92.05;98504.44;5070338;28;20047;-56
2022/06/24 07:13:34;;;;;;;8.02;3.50;;;;;;;19.38;91.08;98497.59;5070145;28;20051;-57
2022/06/24 07:15:59;;;;;;;11.88;3.55;;;;;;;19.20;91.77;98506.84;5070439;28;20509;-57
2022/06/24 07:18:25;;;;;;;11.88;3.55;;;;;;;19.28;92.23;98504.13;5070209;28;20033;-56
2022/06/24 07:20:50;;;;;;;14.00;3.22;;;;;;;19.45;91.50;98508.00;5070936;28;20040;-57
2022/06/24 07:23:16;;;;;;;6.85;3.28;;;;;;;19.56;90.39;98499.19;5069544;28;20386;-56
2022/06/24 07:25:41;;;;;;;7.53;3.28;;;;;;;19.36;91.92;98510.69;5069251;28;20090;-57
2022/06/24 07:28:07;;;;;;;8.80;3.30;;;;;;;19.61;91.34;98511.81;5070160;28;20032;-57
2022/06/24 07:30:33;;;;;;;10.63;2.97;;;;;;;19.10;92.91;98514.16;5070437;28;20381;-57
2022/06/24 07:32:58;;;;;;;6.43;3.08;;;;;;;19.07;93.52;98512.06;5053081;28;20109;-57
2022/06/24 07:35:24;;;;;;;6.50;2.80;;;;;;;19.01;94.01;98518.75;5068749;28;20387;-57
2022/06/24 07:37:49;;;;;;;8.05;2.72;;;;;;;19.08;92.42;98516.38;5037103;28;20558;-57
2022/06/24 07:40:15;;;;;;;8.38;3.15;;;;;;;18.83;95.64;98514.41;5069790;28;20566;-58
2022/06/24 07:42:42;;;;;;;6.20;3.03;;;;;;;19.13;95.31;98518.16;5052623;28;20024;-57
2022/06/24 07:45:08;;;;;;;5.97;2.70;;;;;;;19.14;92.47;98509.66;5068930;28;20102;-57
2022/06/24 07:47:35;;;;;;;7.85;3.00;;;;;;;19.23;92.56;98506.19;5067822;28;20039;-57
2022/06/24 07:50:01;;;;;;;6.55;2.97;;;;;;;19.35;92.62;98514.53;5068345;28;20081;-57
2022/06/24 07:52:27;;;;;;;8.85;2.80;;;;;;;19.08;93.60;98513.66;5070881;28;20078;-56
2022/06/24 07:56:56;;;;;;;4.60;2.50;;;;;;;19.74;91.36;98516.31;5068968;28;20518;-58
2022/06/24 07:57:38;;;;;;;7.80;2.75;;;;;;;19.80;91.70;98508.81;5069519;28;20064;-56
2022/06/24 08:00:03;;;;;;;8.82;2.80;;;;;;;19.78;91.45;98517.28;5045288;28;20036;-56
2022/06/24 08:02:29;;;;;;;6.13;2.85;;;;;;;19.62;91.02;98516.16;5051338;28;20033;-57
2022/06/24 08:04:54;;;;;;;6.53;2.50;;;;;;;19.78;91.33;98508.34;5068627;28;20040;-57
2022/06/24 08:07:20;;;;;;;6.72;2.35;;;;;;;20.09;87.60;98504.63;5069230;28;20072;-57
2022/06/24 08:09:45;;;;;;;5.30;2.35;;;;;;;20.15;87.69;98515.00;5069573;28;20406;-57
2022/06/24 08:12:10;;;;;;;11.35;2.35;;;;;;;20.66;85.60;98507.84;5067991;28;20025;-55
2022/06/24 08:14:36;;;;;;;5.22;2.33;;;;;;;21.80;79.60;98512.63;5047219;28;20051;-57
2022/06/24 08:17:01;;;;;;;7.00;2.30;;;;;;;21.35;82.38;98510.53;5069618;28;20490;-56
2022/06/24 08:19:27;;;;;;;5.65;2.00;;;;;;;23.04;75.99;98512.63;5049763;28;20032;-56
2022/06/24 08:21:52;;;;;;;3.53;1.92;;;;;;;25.51;66.23;98519.22;5068319;28;20035;-57
2022/06/24 08:24:18;;;;;;;5.80;1.77;;;;;;;26.31;63.57;98516.94;5050342;28;20032;-57
2022/06/24 08:26:43;;;;;;;5.05;2.17;;;;;;;26.00;63.50;98515.94;5068566;28;20025;-57
2022/06/24 08:29:10;;;;;;;2.75;1.52;;;;;;;24.38;68.93;98518.03;5068840;28;20032;-57
2022/06/24 08:31:36;;;;;;;3.22;1.60;;;;;;;23.42;69.05;98501.28;5067450;28;20024;-56
2022/06/24 08:34:02;;;;;;;3.30;1.30;;;;;;;22.73;72.08;98507.66;5062241;28;20501;-57
2022/06/24 08:36:27;;;;;;;2.55;1.35;;;;;;;22.37;71.71;98511.94;5068989;28;20028;-56
2022/06/24 08:38:54;;;;;;;3.22;1.60;;;;;;;22.36;72.91;98515.81;5059952;28;20032;-57
2022/06/24 08:41:23;;;;;;;1.58;1.13;;;;;;;22.32;73.53;98520.34;5067216;28;20402;-56
2022/06/24 08:43:50;;;;;;;3.20;1.52;;;;;;;22.06;73.99;98515.13;5049880;28;20034;-57
2022/06/24 08:46:16;;;;;;;2.63;1.55;;;;;;;21.84;73.75;98516.28;5068359;28;20031;-56
2022/06/24 08:48:41;;;;;;;2.65;1.35;;;;;;;21.94;74.18;98521.31;5031795;28;20479;-55
2022/06/24 08:51:07;;;;;;;5.00;1.52;;;;;;;21.94;75.68;98518.59;5034511;28;20032;-56
2022/06/24 08:53:33;;;;;;;3.72;1.50;;;;;;;21.59;75.11;98516.19;5069083;28;20434;-56
2022/06/24 08:55:58;;;;;;;4.30;1.30;;;;;;;21.35;74.37;98516.78;5050905;28;20024;-56
2022/06/24 08:58:24;;;;;;;2.33;1.63;;;;;;;21.54;74.80;98513.63;5031154;28;20052;-55
2022/06/24 09:00:49;;;;;;;8.07;1.55;;;;;;;21.51;75.70;98514.28;5067982;28;20025;-56
2022/06/24 09:03:15;;;;;;;2.88;1.65;;;;;;;21.36;75.52;98512.91;5050159;28;20107;-56
2022/06/24 09:05:41;;;;;;;4.82;1.40;;;;;;;21.74;73.10;98514.75;5067427;28;20029;-55
2022/06/24 09:08:10;;;;;;;3.45;1.40;;;;;;;21.85;72.87;98518.69;5047729;28;20028;-58
2022/06/24 09:10:38;;;;;;;3.40;1.70;;;;;;;22.14;72.39;98520.50;5065983;28;20586;-58
2022/06/24 09:13:03;;;;;;;4.55;1.70;;;;;;;23.06;69.72;98517.72;5066045;28;20029;-57
2022/06/24 09:15:29;;;;;;;2.35;1.70;;;;;;;23.13;68.36;98515.22;5066133;28;20431;-57
2022/06/24 09:17:54;;;;;;;3.10;1.75;;;;;;;24.81;62.00;98513.66;5064358;28;20032;-56
2022/06/24 09:20:24;;;;;;;3.08;1.60;;;;;;;25.49;60.62;98518.78;5049073;28;20062;-58
2022/06/24 09:22:50;;;;;;;4.28;1.60;;;;;;;27.25;54.03;98513.78;5067099;28;20031;-57
2022/06/24 09:25:16;;;;;;;3.58;1.52;;;;;;;26.52;55.81;98521.22;5046207;28;20441;-55
2022/06/24 09:27:43;;;;;;;3.55;1.70;;;;;;;25.95;57.05;98516.22;5065343;28;20039;-57
2022/06/24 09:30:13;;;;;;;3.90;1.80;;;;;;;25.40;58.12;98523.69;5065678;28;20075;-57
2022/06/24 09:32:53;;;;;;;3.92;1.80;;;;;;;25.23;58.90;98524.84;5047982;28;20247;-57
2022/06/24 09:35:19;;;;;;;5.00;2.17;;;;;;;25.18;58.34;98522.41;5066707;28;20296;-56
2022/06/24 09:37:46;;;;;;;3.38;1.63;;;;;;;24.79;58.33;98522.25;5067476;28;20087;-57
2022/06/24 09:40:26;;;;;;;3.63;1.67;;;;;;;24.29;59.84;98521.72;5049414;28;20430;-56
2022/06/24 09:42:58;;;;;;;3.85;1.70;;;;;;;25.05;58.68;98526.38;5040380;28;20448;-57
2022/06/24 09:45:28;;;;;;;4.38;1.70;;;;;;;25.09;58.43;98524.53;5066674;28;20068;-57
2022/06/24 09:47:54;;;;;;;6.53;1.80;;;;;;;27.24;52.61;98529.50;5031847;28;20032;-56
2022/06/24 09:50:20;;;;;;;3.13;1.50;;;;;;;27.89;50.03;98530.41;5067858;28;20024;-57
2022/06/24 09:52:45;;;;;;;5.72;2.08;;;;;;;28.91;48.13;98523.56;5067684;28;20047;-56
2022/06/24 09:55:11;;;;;;;4.63;1.55;;;;;;;29.69;45.95;98524.50;5043879;28;20635;-56
2022/06/24 09:57:40;;;;;;;6.72;1.70;;;;;;;28.24;47.62;98531.97;5065776;28;20182;-56
2022/06/24 10:02:53;;;;;;;4.10;1.73;;;;;;;27.73;48.79;98531.34;5066225;28;20047;-56
2022/06/24 10:05:19;;;;;;;3.35;1.75;;;;;;;27.71;49.56;98533.69;5065042;28;20494;-57
2022/06/24 10:07:47;;;;;;;2.70;1.63;;;;;;;27.08;49.79;98523.31;5028934;28;20139;-57
2022/06/24 10:10:15;;;;;;;3.25;1.75;;;;;;;27.48;49.34;98522.78;5069132;28;20048;-57
2022/06/24 10:12:49;;;;;;;3.28;1.70;;;;;;;28.80;48.27;98534.47;5070007;28;20107;-56
2022/06/24 10:15:14;;;;;;;2.97;1.83;;;;;;;29.02;46.46;98523.63;5045447;28;20047;-57
2022/06/24 10:17:42;;;;;;;3.80;1.55;;;;;;;29.39;45.75;98529.03;5069528;28;20475;-56
2022/06/24 10:20:08;;;;;;;4.05;1.67;;;;;;;29.69;45.36;98517.00;5036243;28;20025;-57
2022/06/24 10:22:49;;;;;;;4.55;1.70;;;;;;;29.92;45.08;98518.66;5039928;28;20017;-57
2022/06/24 10:25:21;;;;;;;4.45;1.60;;;;;;;30.15;44.83;98516.34;5065545;28;20029;-57
2022/06/24 10:27:59;;;;;;;4.65;1.70;;;;;;;29.03;46.14;98514.97;5036736;28;20090;-56
2022/06/24 10:30:40;;;;;;;2.65;1.70;;;;;;;27.91;51.38;98519.81;5065916;28;20031;-56
2022/06/24 10:33:16;;;;;;;4.28;2.03;;;;;;;25.81;57.36;98513.19;5070024;28;20016;-56
2022/06/24 10:36:28;;;;;;;5.28;2.13;;;;;;;24.83;61.80;98511.34;5069728;28;20359;-56
2022/06/24 10:38:54;;;;;;;4.05;1.90;;;;;;;24.85;62.90;98509.06;5014081;28;20047;-57
2022/06/24 10:41:19;;;;;;;5.35;2.45;;;;;;;23.60;66.75;98512.75;5053182;28;20020;-56
2022/06/24 10:43:45;;;;;;;8.88;2.80;;;;;;;22.70;70.20;98516.56;5026141;28;20509;-56
2022/06/24 10:46:13;;;;;;;6.75;2.60;;;;;;;23.01;68.09;98516.84;5039835;28;20075;-56
2022/06/24 10:48:45;;;;;;;4.05;2.63;;;;;;;22.47;68.69;98522.44;5063860;28;20483;-56
2022/06/24 10:51:15;;;;;;;5.25;2.60;;;;;;;22.73;68.72;98524.06;5070927;28;20031;-56
2022/06/24 10:54:16;;;;;;;7.68;2.63;;;;;;;22.47;70.13;98527.09;5071022;28;20056;-56
2022/06/24 10:56:49;;;;;;;5.50;2.78;;;;;;;22.59;72.27;98527.91;4988667;28;20485;-57
2022/06/24 10:59:17;;;;;;;6.35;2.92;;;;;;;22.46;74.87;98531.75;5057353;28;20036;-57
2022/06/24 11:01:45;;;;;;;7.35;3.45;;;;;;;21.81;80.35;98533.31;5069994;28;20052;-57
2022/06/24 11:04:13;;;;;;;10.20;3.58;;;;;;;21.65;82.69;98530.41;5069708;28;20031;-55
2022/06/24 11:06:39;;;;;;;9.63;3.15;;;;;;;20.81;85.04;98536.44;5069680;28;20039;-57
2022/06/24 11:09:06;;;;;;;9.13;3.70;;;;;;;21.13;87.47;98536.94;5071237;28;20033;-57
2022/06/24 11:11:32;;;;;;;9.98;3.72;;;;;;;21.17;88.72;98531.63;5069807;28;20605;-53
2022/06/24 11:13:57;;;;;;;10.48;3.65;;;;;;;20.51;86.34;98535.56;5068100;28;20028;-57
2022/06/24 11:16:27;;;;;;;7.97;4.07;;;;;;;20.24;89.64;98526.69;5068694;28;20039;-58
2022/06/24 11:18:53;;;;;;;;;;;;;;;20.63;88.45;98516.66;5051843;28;20024;-56
2022/06/24 11:21:18;;;;;;;5.18;3.40;;;;;;;21.42;85.56;98522.53;5068632;28;19975;-56
2022/06/24 11:23:46;;;;;;;9.07;3.70;;;;;;;22.02;81.20;98523.19;5069015;28;20107;-56
2022/06/24 11:26:14;;;;;;;9.77;3.15;;;;;;;22.48;77.07;98513.09;5068097;28;20031;-57
2022/06/24 11:28:40;;;;;;;6.97;3.35;;;;;;;22.75;79.08;98521.78;5068750;28;20450;-57
2022/06/24 11:31:25;;;;;;;7.63;3.10;;;;;;;23.82;74.25;98516.91;5068193;28;20017;-56
2022/06/24 11:34:11;;;;;;;4.95;2.83;;;;;;;23.78;68.95;98513.28;5068297;28;20028;-56